Time;durP1;ratioP1;P1;durP2;ratioP2;P2;SDS_P1;SDS_P2;PMS_P1;PMS_P2;Temp;Humidity;BMP_temperature;BMP_pressure;BME280_temperature;BME280_humidity;BME280_pressure;Samples;Min_cycle;Max_cycle;Signal;HPM_P1;HPM_P2
2023/05/24 00:00:14;;;;;;;9.70;4.20;;;13.70;1.00;;;;;;5071341;28;20488;-59
2023/05/24 00:02:40;;;;;;;8.43;4.30;;;13.80;1.00;;;;;;5066512;28;20750;-59
2023/05/24 00:05:09;;;;;;;12.53;4.80;;;13.90;1.00;;;;;;5069183;28;20445;-59
2023/05/24 00:07:35;;;;;;;7.30;4.30;;;13.80;1.00;;;;;;5068234;28;20473;-59
2023/05/24 00:10:05;;;;;;;10.30;4.87;;;13.70;1.00;;;;;;5070926;28;20445;-59
2023/05/24 00:12:31;;;;;;;8.70;3.93;;;13.50;1.00;;;;;;5065752;28;20830;-59
2023/05/24 00:14:57;;;;;;;8.33;4.03;;;13.40;1.00;;;;;;5070300;28;20983;-59
2023/05/24 00:17:23;;;;;;;9.40;3.80;;;13.30;1.00;;;;;;5067439;28;20513;-58
2023/05/24 00:19:51;;;;;;;7.33;3.87;;;13.10;1.00;;;;;;5069483;28;20219;-58
2023/05/24 00:22:19;;;;;;;12.17;4.20;;;13.10;1.00;;;;;;5068996;28;20442;-58
2023/05/24 00:24:46;;;;;;;8.70;4.10;;;13.10;1.00;;;;;;5067144;28;20449;-59
2023/05/24 00:27:13;;;;;;;12.07;4.97;;;13.20;1.00;;;;;;5070852;28;20477;-58
2023/05/24 00:29:38;;;;;;;10.30;4.27;;;13.10;1.00;;;;;;5067396;28;20461;-58
2023/05/24 00:32:04;;;;;;;9.60;4.50;;;13.10;1.00;;;;;;5067440;28;20449;-59
2023/05/24 00:34:30;;;;;;;14.13;5.50;;;13.20;1.00;;;;;;5068410;28;20196;-59
2023/05/24 00:36:56;;;;;;;13.67;5.07;;;13.20;1.00;;;;;;5070915;28;20486;-59
2023/05/24 00:39:22;;;;;;;12.83;4.17;;;13.20;1.00;;;;;;5066981;28;20203;-59
2023/05/24 00:41:48;;;;;;;10.40;3.83;;;13.00;1.00;;;;;;5067784;28;20454;-59
2023/05/24 00:44:13;;;;;;;12.50;4.30;;;13.00;1.00;;;;;;5065468;28;20238;-59
2023/05/24 00:46:40;;;;;;;9.67;4.23;;;12.90;1.00;;;;;;5068433;28;20546;-59
2023/05/24 00:49:06;;;;;;;6.00;3.43;;;12.90;1.00;;;;;;5069345;28;20291;-60
2023/05/24 00:51:32;;;;;;;11.27;3.33;;;12.90;1.00;;;;;;5071808;28;20505;-60
2023/05/24 00:53:58;;;;;;;13.67;4.27;;;13.00;1.00;;;;;;5070615;28;20438;-59
2023/05/24 00:56:25;;;;;;;8.87;3.60;;;12.90;1.00;;;;;;5069971;28;20517;-58
2023/05/24 00:58:53;;;;;;;13.10;4.33;;;12.80;1.00;;;;;;5070397;28;20536;-59
2023/05/24 01:01:19;;;;;;;11.40;3.50;;;12.90;1.00;;;;;;5066101;28;20568;-58
2023/05/24 01:03:45;;;;;;;11.53;3.77;;;13.00;1.00;;;;;;5066996;28;20540;-59
2023/05/24 01:06:14;;;;;;;11.40;3.70;;;13.10;1.00;;;;;;5068587;28;20199;-59
2023/05/24 01:08:59;;;;;;;8.10;3.57;;;13.10;1.00;;;;;;5069611;28;20196;-59
2023/05/24 01:11:46;;;;;;;8.13;3.40;;;13.10;1.00;;;;;;5069518;28;20453;-59
2023/05/24 01:14:20;;;;;;;15.80;4.07;;;13.20;1.00;;;;;;5070110;28;20446;-58
2023/05/24 01:16:55;;;;;;;11.10;3.63;;;13.10;1.00;;;;;;5065210;28;20477;-58
2023/05/24 01:20:00;;;;;;;12.87;3.97;;;13.10;1.00;;;;;;5069292;28;20481;-58
2023/05/24 01:22:29;;;;;;;11.87;4.50;;;13.20;1.00;;;;;;5060470;28;21089;-58
2023/05/24 01:25:03;;;;;;;8.60;3.90;;;13.20;1.00;;;;;;5070593;28;21045;-58
2023/05/24 01:27:32;;;;;;;9.00;3.40;;;13.30;1.00;;;;;;5065615;28;21642;-58
2023/05/24 01:29:59;;;;;;;8.07;3.77;;;13.10;1.00;;;;;;5066392;28;20457;-58
2023/05/24 01:32:25;;;;;;;9.53;4.03;;;13.10;1.00;;;;;;5065691;28;20456;-58
2023/05/24 01:34:51;;;;;;;10.10;3.10;;;13.10;1.00;;;;;;5068621;28;20456;-58
2023/05/24 01:37:16;;;;;;;7.97;4.40;;;13.30;1.00;;;;;;5064306;28;20463;-59
2023/05/24 01:39:42;;;;;;;12.37;3.33;;;13.00;1.00;;;;;;5068311;28;20208;-59
2023/05/24 01:42:26;;;;;;;12.00;3.40;;;12.80;1.00;;;;;;5067214;28;20609;-59
2023/05/24 01:45:21;;;;;;;9.23;2.80;;;12.60;1.00;;;;;;5068578;28;20583;-59
2023/05/24 01:47:50;;;;;;;7.93;3.20;;;12.50;1.00;;;;;;5062947;28;20442;-58
2023/05/24 01:50:27;;;;;;;8.70;2.93;;;12.60;1.00;;;;;;5069745;28;20484;-59
2023/05/24 01:52:55;;;;;;;6.30;3.40;;;12.60;1.00;;;;;;5067152;28;20526;-58
2023/05/24 01:55:21;;;;;;;10.93;3.40;;;12.70;1.00;;;;;;5068084;28;20450;-58
2023/05/24 01:57:49;;;;;;;10.07;3.67;;;12.70;1.00;;;;;;5065477;28;20466;-58
2023/05/24 02:00:18;;;;;;;8.10;2.83;;;12.80;1.00;;;;;;5066859;28;20513;-58
2023/05/24 02:02:44;;;;;;;7.17;3.07;;;12.80;1.00;;;;;;5067319;28;20446;-59
2023/05/24 02:05:10;;;;;;;11.13;3.70;;;12.80;1.00;;;;;;5068803;28;20927;-58
2023/05/24 02:07:36;;;;;;;4.37;3.17;;;12.80;1.00;;;;;;5068013;28;20898;-58
2023/05/24 02:10:03;;;;;;;10.00;3.30;;;12.80;1.00;;;;;;5065895;28;20464;-59
2023/05/24 02:12:29;;;;;;;9.63;3.97;;;12.60;1.00;;;;;;5068092;28;20463;-59
2023/05/24 02:14:56;;;;;;;8.20;4.13;;;12.60;1.00;;;;;;5066564;28;20449;-59
2023/05/24 02:17:23;;;;;;;5.80;3.00;;;12.60;1.00;;;;;;5066403;28;20522;-58
2023/05/24 02:19:49;;;;;;;12.57;3.40;;;12.60;1.00;;;;;;5067821;28;20493;-58
2023/05/24 02:22:14;;;;;;;12.20;3.30;;;12.60;1.00;;;;;;5068022;28;20883;-59
2023/05/24 02:24:40;;;;;;;7.53;3.10;;;12.50;1.00;;;;;;5065442;28;20184;-59
2023/05/24 02:27:06;;;;;;;9.17;3.37;;;12.30;1.00;;;;;;5065295;28;20565;-59
2023/05/24 02:29:31;;;;;;;14.50;3.40;;;12.20;1.00;;;;;;5067691;28;20187;-58
2023/05/24 02:31:57;;;;;;;10.47;3.77;;;12.20;1.00;;;;;;5067302;28;20191;-58
2023/05/24 02:34:23;;;;;;;8.30;2.87;;;12.10;1.00;;;;;;5064955;28;20193;-60
2023/05/24 02:36:49;;;;;;;7.33;3.50;;;12.00;1.00;;;;;;5068126;28;20268;-58
2023/05/24 02:39:15;;;;;;;10.73;3.40;;;12.10;1.00;;;;;;5066336;28;20836;-58
2023/05/24 02:41:41;;;;;;;7.40;3.17;;;12.10;1.00;;;;;;5066761;28;20552;-58
2023/05/24 02:44:06;;;;;;;11.63;3.80;;;11.90;1.00;;;;;;5065007;28;20454;-59
2023/05/24 02:46:32;;;;;;;9.43;2.70;;;11.90;1.00;;;;;;5069657;28;20180;-59
2023/05/24 02:48:58;;;;;;;11.23;3.53;;;11.90;1.00;;;;;;5066277;28;20183;-58
2023/05/24 02:51:24;;;;;;;12.57;3.67;;;12.00;1.00;;;;;;5069170;28;20210;-59
2023/05/24 02:53:50;;;;;;;11.37;3.73;;;11.90;1.00;;;;;;5064878;28;20188;-59
2023/05/24 02:56:16;;;;;;;9.20;2.90;;;12.00;1.00;;;;;;5068548;28;20454;-59
2023/05/24 02:58:43;;;;;;;9.53;3.37;;;12.00;1.00;;;;;;5068696;28;20473;-59
2023/05/24 03:01:11;;;;;;;8.40;3.17;;;11.90;1.00;;;;;;5067148;28;20485;-59
2023/05/24 03:03:37;;;;;;;13.30;3.87;;;12.00;1.00;;;;;;5062291;28;20453;-59
2023/05/24 03:06:03;;;;;;;9.17;3.13;;;12.00;1.00;;;;;;5066291;28;20450;-59
2023/05/24 03:08:29;;;;;;;6.07;3.50;;;12.10;1.00;;;;;;5066956;28;20457;-60
2023/05/24 03:10:54;;;;;;;10.43;3.50;;;12.10;1.00;;;;;;5068368;28;20236;-58
2023/05/24 03:13:20;;;;;;;5.03;2.80;;;12.30;1.00;;;;;;5064003;28;20234;-59
2023/05/24 03:15:45;;;;;;;8.50;3.10;;;12.30;1.00;;;;;;5064170;28;20195;-59
2023/05/24 03:18:11;;;;;;;10.63;2.70;;;12.30;1.00;;;;;;5070462;28;20198;-59
2023/05/24 03:20:36;;;;;;;8.77;2.73;;;12.40;1.00;;;;;;5072956;28;20211;-59
2023/05/24 03:23:02;;;;;;;9.53;3.63;;;12.50;1.00;;;;;;5067402;28;20184;-58
2023/05/24 03:25:28;;;;;;;11.13;4.00;;;12.60;1.00;;;;;;5065866;28;20199;-59
2023/05/24 03:27:53;;;;;;;12.30;3.70;;;12.40;1.00;;;;;;5070184;28;20183;-58
2023/05/24 03:30:19;;;;;;;10.77;3.03;;;12.30;1.00;;;;;;5070392;28;20193;-59
2023/05/24 03:32:45;;;;;;;8.50;3.73;;;12.20;1.00;;;;;;5074132;28;20206;-59
2023/05/24 03:35:13;;;;;;;11.67;3.80;;;12.00;1.00;;;;;;5070131;28;20291;-58
2023/05/24 03:37:39;;;;;;;7.20;3.07;;;12.00;1.00;;;;;;5075126;28;20194;-59
2023/05/24 03:40:06;;;;;;;7.20;3.50;;;11.90;1.00;;;;;;5070525;28;20954;-57
2023/05/24 03:42:31;;;;;;;8.30;3.33;;;12.00;1.00;;;;;;5071619;28;20523;-58
2023/05/24 03:44:57;;;;;;;10.47;3.10;;;12.00;1.00;;;;;;5071668;28;20484;-59
2023/05/24 03:47:22;;;;;;;7.10;3.30;;;12.00;1.00;;;;;;5071126;28;20313;-59
2023/05/24 03:49:48;;;;;;;7.27;2.93;;;12.00;1.00;;;;;;5074414;28;20653;-59
2023/05/24 03:52:13;;;;;;;9.27;3.50;;;12.00;1.00;;;;;;5073039;28;20236;-59
2023/05/24 03:54:39;;;;;;;15.50;3.20;;;11.90;1.00;;;;;;5072831;28;20196;-59
2023/05/24 03:57:05;;;;;;;13.30;4.97;;;11.80;1.00;;;;;;5074449;28;20289;-58
2023/05/24 03:59:31;;;;;;;9.77;2.93;;;11.90;1.00;;;;;;5069729;28;20199;-59
2023/05/24 04:01:56;;;;;;;9.17;3.33;;;11.80;1.00;;;;;;5068848;28;20437;-58
2023/05/24 04:04:22;;;;;;;10.27;3.20;;;11.80;1.00;;;;;;5072863;28;20644;-59
2023/05/24 04:06:48;;;;;;;14.83;4.17;;;11.90;1.00;;;;;;5071929;28;20782;-58
2023/05/24 04:09:14;;;;;;;9.47;3.17;;;11.80;1.00;;;;;;5073090;28;20190;-58
2023/05/24 04:11:40;;;;;;;7.97;3.20;;;11.90;1.00;;;;;;5071628;28;20533;-58
2023/05/24 04:14:06;;;;;;;8.40;3.43;;;12.00;1.00;;;;;;5071359;28;20474;-58
2023/05/24 04:16:32;;;;;;;9.97;3.43;;;12.10;1.00;;;;;;5070809;28;20453;-59
2023/05/24 04:19:00;;;;;;;8.40;3.17;;;12.20;1.00;;;;;;5074878;28;20187;-59
2023/05/24 04:21:26;;;;;;;8.47;2.83;;;12.20;1.00;;;;;;5082995;28;20460;-59
2023/05/24 04:23:52;;;;;;;7.73;3.37;;;12.30;1.00;;;;;;5083970;28;20437;-59
2023/05/24 04:26:20;;;;;;;13.80;3.43;;;12.40;1.00;;;;;;5063261;28;20186;-59
2023/05/24 04:28:45;;;;;;;5.47;3.17;;;12.50;1.00;;;;;;5069127;28;20188;-59
2023/05/24 04:31:11;;;;;;;11.03;2.90;;;12.60;1.00;;;;;;5065882;28;20946;-58
2023/05/24 04:33:38;;;;;;;10.03;3.70;;;12.60;1.00;;;;;;5066730;28;20241;-58
2023/05/24 04:36:04;;;;;;;10.53;3.10;;;12.70;1.00;;;;;;5068481;28;20256;-60
2023/05/24 04:38:31;;;;;;;10.97;4.20;;;12.60;1.00;;;;;;5074550;28;20442;-59
2023/05/24 04:40:58;;;;;;;8.87;3.77;;;12.70;1.00;;;;;;5070009;28;20211;-58
2023/05/24 04:43:25;;;;;;;8.57;3.53;;;12.80;1.00;;;;;;5075416;28;20468;-59
2023/05/24 04:45:52;;;;;;;8.60;3.00;;;12.80;1.00;;;;;;5078785;28;20503;-59
2023/05/24 04:48:19;;;;;;;10.87;3.93;;;12.80;1.00;;;;;;5071921;28;20452;-59
2023/05/24 04:50:46;;;;;;;8.53;3.70;;;12.70;1.00;;;;;;5072048;28;20520;-60
2023/05/24 04:53:13;;;;;;;15.37;3.80;;;12.60;1.00;;;;;;5071973;28;20947;-59
2023/05/24 04:55:40;;;;;;;11.20;4.20;;;12.70;1.00;;;;;;5071861;28;20869;-58
2023/05/24 04:58:06;;;;;;;10.43;3.30;;;12.80;1.00;;;;;;5071639;28;20466;-60
2023/05/24 05:00:31;;;;;;;11.33;3.73;;;12.80;1.00;;;;;;5070979;28;20480;-58
2023/05/24 05:02:57;;;;;;;7.20;3.70;;;12.80;1.00;;;;;;5071108;28;20184;-59
2023/05/24 05:05:23;;;;;;;8.83;3.40;;;12.80;1.00;;;;;;5071353;28;20207;-59
2023/05/24 05:07:48;;;;;;;12.67;3.00;;;12.80;1.00;;;;;;5071722;28;20222;-59
2023/05/24 05:10:14;;;;;;;8.47;3.87;;;12.60;1.00;;;;;;5071587;28;20192;-60
2023/05/24 05:12:40;;;;;;;7.40;3.37;;;12.80;1.00;;;;;;5071478;28;20226;-58
2023/05/24 05:15:06;;;;;;;11.00;4.17;;;12.50;1.00;;;;;;5067586;28;20223;-59
2023/05/24 05:17:32;;;;;;;11.37;3.67;;;12.40;1.00;;;;;;5071599;28;20537;-59
2023/05/24 05:19:57;;;;;;;9.70;3.37;;;12.40;1.00;;;;;;5071108;28;20523;-61
2023/05/24 05:22:23;;;;;;;7.23;3.10;;;12.50;1.00;;;;;;5069613;28;20196;-58
2023/05/24 05:24:49;;;;;;;13.53;3.43;;;12.40;1.00;;;;;;5062658;28;20187;-58
2023/05/24 05:27:14;;;;;;;15.40;4.17;;;12.60;1.00;;;;;;5068990;28;20184;-58
2023/05/24 05:29:40;;;;;;;9.87;2.80;;;12.60;1.00;;;;;;5068936;28;20188;-59
2023/05/24 05:32:06;;;;;;;8.43;3.30;;;12.50;1.00;;;;;;5071106;28;20285;-58
2023/05/24 05:34:31;;;;;;;6.20;3.67;;;12.40;1.00;;;;;;5076805;28;20183;-58
2023/05/24 05:36:57;;;;;;;12.80;3.03;;;12.40;1.00;;;;;;5069369;28;20240;-59
2023/05/24 05:39:23;;;;;;;16.30;4.40;;;12.20;1.00;;;;;;5067966;28;20246;-59
2023/05/24 05:41:48;;;;;;;10.33;2.87;;;12.30;1.00;;;;;;5069845;28;20214;-58
2023/05/24 05:44:14;;;;;;;8.13;3.40;;;12.50;1.00;;;;;;5066929;28;20188;-59
2023/05/24 05:46:42;;;;;;;10.73;3.20;;;12.40;1.00;;;;;;5062468;28;20192;-59
2023/05/24 05:49:08;;;;;;;7.53;3.33;;;12.40;1.00;;;;;;5064616;28;20538;-59
2023/05/24 05:51:35;;;;;;;11.53;4.00;;;12.60;1.00;;;;;;5063971;28;20598;-58
2023/05/24 05:54:00;;;;;;;10.60;3.20;;;12.70;1.00;;;;;;5067179;28;20911;-60
2023/05/24 05:56:26;;;;;;;10.57;3.80;;;12.60;1.00;;;;;;5065828;28;20453;-58
2023/05/24 05:58:52;;;;;;;6.93;3.57;;;12.50;1.00;;;;;;5069034;28;20237;-60
2023/05/24 06:01:17;;;;;;;11.00;3.60;;;12.60;1.00;;;;;;5067710;28;20207;-59
2023/05/24 06:03:43;;;;;;;9.80;4.17;;;12.70;1.00;;;;;;5069240;28;20223;-60
2023/05/24 06:06:09;;;;;;;9.03;3.57;;;12.70;1.00;;;;;;5070026;28;20187;-57
2023/05/24 06:08:35;;;;;;;12.77;3.20;;;12.80;1.00;;;;;;5065132;28;21444;-60
2023/05/24 06:11:01;;;;;;;7.83;4.63;;;12.80;1.00;;;;;;5066117;28;20649;-59
2023/05/24 06:13:27;;;;;;;7.30;3.60;;;13.00;1.00;;;;;;5065916;28;20457;-59
2023/05/24 06:15:54;;;;;;;10.57;4.10;;;13.00;1.00;;;;;;5064852;28;20816;-58
2023/05/24 06:18:22;;;;;;;8.67;3.10;;;13.30;1.00;;;;;;5068999;28;20466;-59
2023/05/24 06:20:48;;;;;;;9.50;4.67;;;12.70;1.00;;;;;;5067680;28;20522;-58
2023/05/24 06:23:13;;;;;;;10.80;3.37;;;12.60;1.00;;;;;;5067233;28;20445;-59
2023/05/24 06:25:42;;;;;;;9.27;3.70;;;12.70;1.00;;;;;;5067217;28;20541;-60
2023/05/24 06:28:08;;;;;;;11.33;3.60;;;12.70;1.00;;;;;;5061300;28;20192;-60
2023/05/24 06:30:34;;;;;;;8.30;3.00;;;12.80;1.00;;;;;;5064925;28;20457;-57
2023/05/24 06:33:00;;;;;;;10.70;3.97;;;12.80;1.00;;;;;;5065765;28;20434;-59
2023/05/24 06:35:25;;;;;;;7.53;3.83;;;12.70;1.00;;;;;;5066200;28;20225;-59
2023/05/24 06:37:51;;;;;;;14.80;4.00;;;12.60;1.00;;;;;;5065465;28;20473;-58
2023/05/24 06:40:17;;;;;;;7.10;2.87;;;12.70;1.00;;;;;;5063648;28;20231;-59
2023/05/24 06:42:42;;;;;;;6.43;4.13;;;12.60;1.00;;;;;;5068486;28;20709;-59
2023/05/24 06:45:08;;;;;;;13.13;4.30;;;12.60;1.00;;;;;;5065553;28;20291;-58
2023/05/24 06:47:34;;;;;;;11.90;3.10;;;12.70;1.00;;;;;;5067569;28;20300;-57
2023/05/24 06:50:02;;;;;;;12.20;3.80;;;12.70;1.00;;;;;;5066561;28;20496;-59
2023/05/24 06:52:28;;;;;;;11.67;3.23;;;12.90;1.00;;;;;;5064772;28;20516;-58
2023/05/24 06:54:54;;;;;;;9.80;3.97;;;13.10;1.00;;;;;;5069863;28;20448;-57
2023/05/24 06:57:20;;;;;;;16.13;4.13;;;13.50;1.00;;;;;;5066795;28;20311;-59
2023/05/24 06:59:45;;;;;;;20.97;4.27;;;13.30;1.00;;;;;;5064864;28;20200;-59
2023/05/24 07:02:11;;;;;;;10.50;3.93;;;13.50;1.00;;;;;;5063981;28;20464;-59
2023/05/24 07:04:39;;;;;;;10.70;3.43;;;13.70;1.00;;;;;;5058692;28;20214;-59
2023/05/24 07:07:06;;;;;;;11.27;4.03;;;13.70;1.00;;;;;;5066814;28;20195;-59
2023/05/24 07:09:32;;;;;;;11.43;4.10;;;14.10;1.00;;;;;;5063127;28;20441;-60
2023/05/24 07:11:58;;;;;;;12.23;3.47;;;13.90;1.00;;;;;;5064710;28;20551;-59
2023/05/24 07:14:24;;;;;;;8.03;3.47;;;13.70;1.00;;;;;;5064143;28;20270;-58
2023/05/24 07:16:50;;;;;;;7.60;3.77;;;13.70;1.00;;;;;;5064966;28;20195;-59
2023/05/24 07:19:16;;;;;;;13.30;4.20;;;13.80;1.00;;;;;;5063993;28;20799;-57
2023/05/24 07:21:41;;;;;;;11.07;4.33;;;13.90;1.00;;;;;;5067905;28;20273;-58
2023/05/24 07:24:07;;;;;;;6.43;3.40;;;14.10;1.00;;;;;;5064976;28;20206;-59
2023/05/24 07:26:33;;;;;;;7.93;3.70;;;14.10;99.90;;;;;;5066594;28;20237;-58
2023/05/24 07:28:58;;;;;;;14.83;3.70;;;14.00;99.90;;;;;;5063647;28;20192;-58
2023/05/24 07:31:25;;;;;;;13.90;5.60;;;13.90;99.90;;;;;;5064362;28;20235;-58
2023/05/24 07:33:50;;;;;;;11.70;4.03;;;13.70;99.90;;;;;;5064789;28;20279;-59
2023/05/24 07:36:16;;;;;;;10.50;3.87;;;13.40;1.00;;;;;;5057658;28;21165;-58
2023/05/24 07:38:42;;;;;;;8.23;3.70;;;13.30;1.00;;;;;;5063443;28;20194;-60
2023/05/24 07:41:08;;;;;;;15.20;4.87;;;13.00;1.00;;;;;;5066499;28;20270;-59
2023/05/24 07:43:33;;;;;;;15.53;3.93;;;13.10;1.00;;;;;;5066864;28;20203;-58
2023/05/24 07:45:59;;;;;;;15.30;4.30;;;12.80;1.00;;;;;;5066976;28;20184;-59
2023/05/24 07:48:24;;;;;;;11.47;4.70;;;12.80;1.00;;;;;;5063793;28;20196;-58
2023/05/24 07:50:51;;;;;;;7.00;3.57;;;13.00;1.00;;;;;;5066116;28;20260;-59
2023/05/24 07:53:18;;;;;;;10.00;4.30;;;13.10;1.00;;;;;;5067589;28;20199;-59
2023/05/24 07:55:44;;;;;;;13.17;4.60;;;13.00;1.00;;;;;;5078373;28;20437;-58
2023/05/24 07:58:10;;;;;;;11.23;4.10;;;13.30;1.00;;;;;;5066867;28;21001;-60
2023/05/24 08:00:36;;;;;;;12.77;4.10;;;13.20;1.00;;;;;;5067663;28;20465;-59
2023/05/24 08:03:02;;;;;;;12.20;3.67;;;13.10;1.00;;;;;;5063290;28;20453;-58
2023/05/24 08:05:28;;;;;;;12.97;4.30;;;13.10;1.00;;;;;;5065447;28;20450;-59
2023/05/24 08:07:54;;;;;;;15.50;4.87;;;13.20;1.00;;;;;;5064736;28;20180;-59
2023/05/24 08:10:20;;;;;;;11.80;4.13;;;13.40;1.00;;;;;;5062017;28;20454;-59
2023/05/24 08:12:46;;;;;;;14.10;4.80;;;13.60;99.90;;;;;;5058789;28;20215;-58
2023/05/24 08:15:12;;;;;;;13.83;4.10;;;13.60;99.90;;;;;;5067283;28;20481;-59
2023/05/24 08:17:38;;;;;;;12.10;4.07;;;13.60;99.90;;;;;;5065360;28;20497;-58
2023/05/24 08:20:12;;;;;;;6.40;3.73;;;13.50;99.90;;;;;;5066899;28;20301;-59
2023/05/24 08:22:38;;;;;;;10.80;4.87;;;13.70;99.90;;;;;;5068741;28;20517;-59
2023/05/24 08:25:04;;;;;;;11.50;4.90;;;13.80;99.90;;;;;;5069308;28;20445;-58
2023/05/24 08:27:30;;;;;;;15.03;4.77;;;14.00;99.90;;;;;;5066589;28;21138;-59
2023/05/24 08:29:56;;;;;;;6.47;3.80;;;14.20;99.90;;;;;;5071761;28;20460;-59
2023/05/24 08:32:21;;;;;;;11.87;5.53;;;14.10;99.90;;;;;;5071336;28;20237;-58
2023/05/24 08:34:47;;;;;;;11.43;4.00;;;14.20;99.90;;;;;;5076035;28;20179;-58
2023/05/24 08:37:14;;;;;;;11.07;4.50;;;14.30;99.90;;;;;;5092310;28;20183;-58
2023/05/24 08:39:40;;;;;;;11.63;4.50;;;14.20;99.90;;;;;;5092191;28;20182;-59
2023/05/24 08:42:06;;;;;;;10.30;4.63;;;14.10;99.90;;;;;;5091929;28;20537;-59
2023/05/24 08:44:46;;;;;;;15.70;4.80;;;14.20;99.90;;;;;;5071605;28;20747;-59
2023/05/24 08:47:13;;;;;;;11.13;3.90;;;14.20;99.90;;;;;;5072120;28;20879;-59
2023/05/24 08:49:41;;;;;;;9.43;5.17;;;14.30;99.90;;;;;;5071941;28;20435;-58
2023/05/24 08:52:07;;;;;;;11.43;4.53;;;14.30;99.90;;;;;;5071885;28;20500;-59
2023/05/24 08:54:35;;;;;;;9.33;4.40;;;14.40;99.90;;;;;;5071911;28;20438;-59
2023/05/24 08:57:01;;;;;;;9.30;4.17;;;14.40;99.90;;;;;;5070723;28;20223;-59
2023/05/24 08:59:27;;;;;;;9.83;4.43;;;14.40;99.90;;;;;;5071324;28;20456;-59
2023/05/24 09:01:53;;;;;;;16.10;4.97;;;14.70;99.90;;;;;;5071434;28;20474;-59
2023/05/24 09:04:21;;;;;;;6.90;3.80;;;14.90;99.90;;;;;;5071493;28;20633;-58
2023/05/24 09:06:47;;;;;;;10.23;3.97;;;15.10;99.90;;;;;;5071613;28;21111;-59
2023/05/24 09:09:16;;;;;;;11.57;5.00;;;15.40;99.90;;;;;;5071276;28;20457;-59
2023/05/24 09:11:45;;;;;;;15.57;4.57;;;15.60;99.90;;;;;;5071056;28;20529;-59
2023/05/24 09:14:12;;;;;;;12.83;5.00;;;15.80;99.90;;;;;;5067692;28;20520;-59
2023/05/24 09:16:38;;;;;;;7.70;4.40;;;16.10;99.90;;;;;;5071244;28;20532;-59
2023/05/24 09:19:04;;;;;;;8.80;4.57;;;16.20;99.90;;;;;;5071222;28;20532;-60
2023/05/24 09:21:31;;;;;;;9.23;4.50;;;15.80;99.90;;;;;;5071219;28;20599;-59
2023/05/24 09:23:57;;;;;;;10.87;4.57;;;15.90;99.90;;;;;;5071286;28;20180;-59
2023/05/24 09:26:24;;;;;;;13.10;4.47;;;15.90;99.90;;;;;;5070102;28;20470;-60
2023/05/24 09:28:54;;;;;;;10.80;5.20;;;15.90;99.90;;;;;;5069523;28;20456;-58
2023/05/24 09:31:31;;;;;;;10.93;4.70;;;15.80;99.90;;;;;;5069016;28;20480;-58
2023/05/24 09:33:56;;;;;;;10.67;4.73;;;15.70;99.90;;;;;;5071280;28;20437;-58
2023/05/24 09:36:22;;;;;;;7.73;4.40;;;15.50;99.90;;;;;;5071130;28;20429;-59
2023/05/24 09:38:48;;;;;;;11.40;4.20;;;15.50;99.90;;;;;;5071089;28;20188;-59
2023/05/24 09:41:14;;;;;;;10.60;4.77;;;15.40;99.90;;;;;;5070930;28;20231;-60
2023/05/24 09:43:51;;;;;;;12.37;5.10;;;15.50;99.90;;;;;;5070870;28;20462;-58
2023/05/24 09:46:20;;;;;;;11.57;5.13;;;16.00;99.90;;;;;;5069940;28;20221;-58
2023/05/24 09:48:59;;;;;;;9.97;4.67;;;16.40;99.90;;;;;;5070484;28;20529;-59
2023/05/24 09:51:25;;;;;;;8.43;4.40;;;16.40;99.90;;;;;;5070565;28;20481;-60
2023/05/24 09:53:56;;;;;;;11.13;5.20;;;16.30;99.90;;;;;;5070610;28;20487;-59
2023/05/24 09:56:22;;;;;;;10.47;4.60;;;16.20;99.90;;;;;;5070396;28;20461;-58
2023/05/24 09:58:48;;;;;;;8.80;4.10;;;16.10;99.90;;;;;;5070119;28;20792;-59
2023/05/24 10:01:16;;;;;;;8.23;4.80;;;16.10;99.90;;;;;;5064461;28;20477;-60
2023/05/24 10:03:56;;;;;;;14.00;4.90;;;16.00;99.90;;;;;;5069500;28;20243;-60
2023/05/24 10:06:22;;;;;;;9.60;4.60;;;15.80;99.90;;;;;;5070313;28;21076;-59
2023/05/24 10:08:53;;;;;;;9.20;4.47;;;16.00;99.90;;;;;;5069253;28;20503;-58
2023/05/24 10:11:19;;;;;;;10.20;5.03;;;16.00;99.90;;;;;;5066207;28;20446;-59
2023/05/24 10:13:46;;;;;;;11.57;4.67;;;16.20;99.90;;;;;;5069977;28;20518;-59
2023/05/24 10:16:12;;;;;;;11.37;4.83;;;15.90;99.90;;;;;;5070435;28;20442;-58
2023/05/24 10:18:38;;;;;;;8.30;4.83;;;15.70;99.90;;;;;;5069677;28;20499;-59
2023/05/24 10:21:08;;;;;;;10.27;4.67;;;15.80;99.90;;;;;;5085009;28;20203;-59
2023/05/24 10:23:38;;;;;;;13.90;4.87;;;15.60;99.90;;;;;;5090291;28;20449;-58
2023/05/24 10:26:05;;;;;;;10.43;4.60;;;15.90;99.90;;;;;;5090189;28;20460;-58
2023/05/24 10:28:44;;;;;;;9.27;4.67;;;16.10;99.90;;;;;;5089937;28;20437;-59
2023/05/24 10:31:16;;;;;;;11.43;5.37;;;16.10;99.90;;;;;;5072652;28;20442;-58
2023/05/24 10:33:45;;;;;;;9.40;4.80;;;16.30;99.90;;;;;;5069771;28;20434;-59
2023/05/24 10:36:13;;;;;;;11.77;4.93;;;16.70;99.90;;;;;;5069721;28;20438;-58
2023/05/24 10:38:39;;;;;;;13.50;4.70;;;17.40;99.90;;;;;;5069568;28;20445;-59
2023/05/24 10:41:07;;;;;;;12.57;4.83;;;17.30;99.90;;;;;;5069706;28;20465;-59
2023/05/24 10:43:37;;;;;;;13.40;5.10;;;17.10;99.90;;;;;;5069724;28;20521;-58
2023/05/24 10:46:03;;;;;;;12.37;4.80;;;17.30;99.90;;;;;;5078144;28;20477;-58
2023/05/24 10:48:29;;;;;;;9.27;4.97;;;17.20;99.90;;;;;;5073746;28;20511;-60
2023/05/24 10:50:55;;;;;;;13.00;4.80;;;17.10;99.90;;;;;;5069450;28;20430;-59
2023/05/24 10:53:29;;;;;;;11.80;4.50;;;16.80;99.90;;;;;;5069634;28;20188;-60
2023/05/24 10:55:56;;;;;;;8.83;4.13;;;16.80;99.90;;;;;;5068361;28;20446;-59
2023/05/24 10:58:34;;;;;;;12.37;4.67;;;17.00;99.90;;;;;;5068080;28;20971;-59
2023/05/24 11:00:59;;;;;;;12.30;4.60;;;17.00;99.90;;;;;;5063014;28;20470;-59
2023/05/24 11:03:31;;;;;;;11.43;4.27;;;17.00;99.90;;;;;;5069031;28;22752;-58
2023/05/24 11:05:57;;;;;;;10.83;4.13;;;17.00;99.90;;;;;;5066202;28;20273;-59
2023/05/24 11:08:24;;;;;;;6.97;3.10;;;17.10;99.90;;;;;;5067785;28;20822;-59
2023/05/24 11:11:03;;;;;;;9.33;3.97;;;17.50;99.90;;;;;;5068490;28;20283;-60
2023/05/24 11:13:29;;;;;;;9.77;4.10;;;18.00;99.90;;;;;;5066918;28;20540;-60
2023/05/24 11:15:55;;;;;;;11.07;4.20;;;18.20;99.90;;;;;;5068363;28;20500;-59
2023/05/24 11:18:22;;;;;;;9.67;4.90;;;17.70;99.90;;;;;;5069188;28;20438;-58
2023/05/24 11:20:49;;;;;;;11.00;4.80;;;17.90;99.90;;;;;;5068934;28;20469;-59
2023/05/24 11:23:15;;;;;;;10.40;4.50;;;17.80;99.90;;;;;;5069072;28;20453;-59
2023/05/24 11:25:41;;;;;;;8.37;4.90;;;17.40;99.90;;;;;;5067701;28;20441;-60
2023/05/24 11:28:11;;;;;;;9.30;4.03;;;17.40;99.90;;;;;;5069119;28;20465;-59
2023/05/24 11:30:44;;;;;;;11.50;5.63;;;17.40;99.90;;;;;;5066308;28;20479;-59
2023/05/24 11:33:18;;;;;;;9.07;4.83;;;17.30;99.90;;;;;;5067862;28;20773;-60
2023/05/24 11:35:46;;;;;;;12.80;5.53;;;17.60;99.90;;;;;;5069008;28;20441;-59
2023/05/24 11:38:13;;;;;;;10.43;5.30;;;18.00;99.90;;;;;;5068867;28;20442;-59
2023/05/24 11:40:43;;;;;;;12.00;4.63;;;18.30;99.90;;;;;;5068912;28;20473;-59
2023/05/24 11:43:17;;;;;;;10.83;4.90;;;18.50;99.90;;;;;;5068748;28;20434;-58
2023/05/24 11:45:46;;;;;;;9.80;4.40;;;17.90;99.90;;;;;;5067623;28;20444;-59
2023/05/24 11:48:11;;;;;;;8.20;4.40;;;17.90;99.90;;;;;;5068307;28;20560;-59
2023/05/24 11:50:39;;;;;;;12.10;5.00;;;17.10;99.90;;;;;;5072871;28;20433;-60
2023/05/24 11:53:05;;;;;;;15.37;5.40;;;16.80;99.90;;;;;;5072883;28;20241;-60
2023/05/24 11:55:31;;;;;;;10.73;4.60;;;17.00;99.90;;;;;;5072315;28;20445;-59
2023/05/24 11:57:58;;;;;;;11.43;4.63;;;17.60;99.90;;;;;;5070917;28;20505;-60
2023/05/24 12:00:27;;;;;;;13.60;6.30;;;18.10;99.90;;;;;;5072851;28;20257;-59
2023/05/24 12:02:56;;;;;;;11.13;5.40;;;18.40;99.90;;;;;;5072614;28;20444;-58
2023/05/24 12:05:22;;;;;;;8.93;3.97;;;18.80;99.90;;;;;;5072868;28;20931;-59
2023/05/24 12:08:03;;;;;;;12.03;5.97;;;18.90;99.90;;;;;;5072415;28;20426;-59
2023/05/24 12:10:29;;;;;;;14.20;6.07;;;18.70;99.90;;;;;;5072771;28;20727;-59
2023/05/24 12:12:56;;;;;;;9.47;5.30;;;18.40;99.90;;;;;;5071863;28;20446;-59
2023/05/24 12:15:22;;;;;;;13.97;5.10;;;17.80;99.90;;;;;;5072519;28;20446;-59
2023/05/24 12:17:50;;;;;;;9.00;4.80;;;17.90;99.90;;;;;;5071516;28;20460;-59
2023/05/24 12:20:18;;;;;;;9.33;4.80;;;17.50;99.90;;;;;;5072150;28;20203;-60
2023/05/24 12:22:51;;;;;;;12.50;5.97;;;17.20;99.90;;;;;;5072609;28;20989;-59
2023/05/24 12:25:20;;;;;;;8.60;4.67;;;17.10;99.90;;;;;;5072035;28;20888;-59
2023/05/24 12:27:54;;;;;;;11.10;4.60;;;17.40;99.90;;;;;;5067164;28;20446;-58
2023/05/24 12:30:27;;;;;;;13.27;5.50;;;17.30;99.90;;;;;;5071989;28;20441;-60
2023/05/24 12:32:53;;;;;;;10.60;4.80;;;17.30;99.90;;;;;;5070887;28;20481;-59
2023/05/24 12:35:22;;;;;;;10.80;5.20;;;17.10;99.90;;;;;;5067304;28;20441;-58
2023/05/24 12:37:48;;;;;;;8.43;5.13;;;17.30;99.90;;;;;;5066556;28;20462;-59
2023/05/24 12:40:22;;;;;;;12.40;5.20;;;17.30;99.90;;;;;;5071051;28;20523;-59
2023/05/24 12:42:58;;;;;;;11.67;5.50;;;17.40;99.90;;;;;;5067050;28;20457;-59
2023/05/24 12:45:24;;;;;;;11.07;5.03;;;17.50;99.90;;;;;;5067465;28;20440;-59
2023/05/24 12:47:54;;;;;;;14.27;5.47;;;17.70;99.90;;;;;;5071201;28;21001;-61